sensor_id;sensor_type;location;lat;lon;timestamp;P1;durP1;ratioP1;P2;durP2;ratioP2
51194;SDS011;37259;49.972;19.850;2023-01-06T00:00:31;8.2;;;2.9;;
51194;SDS011;37259;49.972;19.850;2023-01-06T00:01:32;8.2;;;2.9;;
51194;SDS011;37259;49.972;19.850;2023-01-06T00:02:31;8.2;;;2.9;;
51194;SDS011;37259;49.972;19.850;2023-01-06T00:03:31;8.2;;;2.9;;
51194;SDS011;37259;49.972;19.850;2023-01-06T00:04:31;8.2;;;2.9;;
51194;SDS011;37259;49.972;19.850;2023-01-06T00:05:31;8.2;;;2.9;;
51194;SDS011;37259;49.972;19.850;2023-01-06T00:06:32;8.2;;;2.9;;
51194;SDS011;37259;49.972;19.850;2023-01-06T00:07:31;8.2;;;2.9;;
51194;SDS011;37259;49.972;19.850;2023-01-06T00:08:32;8.2;;;2.9;;
51194;SDS011;37259;49.972;19.850;2023-01-06T00:09:33;8.2;;;2.9;;
51194;SDS011;37259;49.972;19.850;2023-01-06T00:10:31;6.3;;;3;;
51194;SDS011;37259;49.972;19.850;2023-01-06T00:11:31;6.3;;;3;;
51194;SDS011;37259;49.972;19.850;2023-01-06T00:12:32;6.3;;;3;;
51194;SDS011;37259;49.972;19.850;2023-01-06T00:13:31;6.3;;;3;;
51194;SDS011;37259;49.972;19.850;2023-01-06T00:14:31;6.3;;;3;;
51194;SDS011;37259;49.972;19.850;2023-01-06T00:15:31;6.3;;;3;;
51194;SDS011;37259;49.972;19.850;2023-01-06T00:16:31;6.3;;;3;;
51194;SDS011;37259;49.972;19.850;2023-01-06T00:17:31;6.3;;;3;;
51194;SDS011;37259;49.972;19.850;2023-01-06T00:18:31;6.3;;;3;;
51194;SDS011;37259;49.972;19.850;2023-01-06T00:19:31;6.3;;;3;;
51194;SDS011;37259;49.972;19.850;2023-01-06T00:20:31;6.3;;;3;;
51194;SDS011;37259;49.972;19.850;2023-01-06T00:21:31;6.3;;;3;;
51194;SDS011;37259;49.972;19.850;2023-01-06T00:22:31;6.3;;;3;;
51194;SDS011;37259;49.972;19.850;2023-01-06T00:23:32;6.3;;;3;;
51194;SDS011;37259;49.972;19.850;2023-01-06T00:24:31;6.3;;;3;;
51194;SDS011;37259;49.972;19.850;2023-01-06T00:25:31;6.3;;;3;;
51194;SDS011;37259;49.972;19.850;2023-01-06T00:26:31;6.3;;;3;;
51194;SDS011;37259;49.972;19.850;2023-01-06T00:27:31;6.3;;;3;;
51194;SDS011;37259;49.972;19.850;2023-01-06T00:28:32;6.3;;;3;;
51194;SDS011;37259;49.972;19.850;2023-01-06T00:29:31;6.3;;;3;;
51194;SDS011;37259;49.972;19.850;2023-01-06T00:30:32;6.3;;;3;;
51194;SDS011;37259;49.972;19.850;2023-01-06T00:31:31;6.3;;;3;;
51194;SDS011;37259;49.972;19.850;2023-01-06T00:32:31;6.3;;;3;;
51194;SDS011;37259;49.972;19.850;2023-01-06T00:33:31;6.3;;;3;;
51194;SDS011;37259;49.972;19.850;2023-01-06T00:34:31;6.3;;;3;;
51194;SDS011;37259;49.972;19.850;2023-01-06T00:35:31;6.3;;;3;;
51194;SDS011;37259;49.972;19.850;2023-01-06T00:36:31;6.3;;;3;;
51194;SDS011;37259;49.972;19.850;2023-01-06T00:37:31;6.3;;;3;;
51194;SDS011;37259;49.972;19.850;2023-01-06T00:38:31;6.3;;;3;;
51194;SDS011;37259;49.972;19.850;2023-01-06T00:39:31;6.3;;;3;;
51194;SDS011;37259;49.972;19.850;2023-01-06T00:40:31;5.5;;;2.9;;
51194;SDS011;37259;49.972;19.850;2023-01-06T00:41:31;5.5;;;2.9;;
51194;SDS011;37259;49.972;19.850;2023-01-06T00:42:31;5.5;;;2.9;;
51194;SDS011;37259;49.972;19.850;2023-01-06T00:43:31;5.5;;;2.9;;
51194;SDS011;37259;49.972;19.850;2023-01-06T00:44:32;5.5;;;2.9;;
51194;SDS011;37259;49.972;19.850;2023-01-06T00:45:31;5.5;;;2.9;;
51194;SDS011;37259;49.972;19.850;2023-01-06T00:46:31;5.5;;;2.9;;
51194;SDS011;37259;49.972;19.850;2023-01-06T00:47:32;5.5;;;2.9;;
51194;SDS011;37259;49.972;19.850;2023-01-06T00:48:31;5.5;;;2.9;;
51194;SDS011;37259;49.972;19.850;2023-01-06T00:49:32;5.5;;;2.9;;
51194;SDS011;37259;49.972;19.850;2023-01-06T00:50:31;5.5;;;2.9;;
51194;SDS011;37259;49.972;19.850;2023-01-06T00:51:31;5.5;;;2.9;;
51194;SDS011;37259;49.972;19.850;2023-01-06T00:52:31;5.5;;;2.9;;
51194;SDS011;37259;49.972;19.850;2023-01-06T00:53:31;5.5;;;2.9;;
51194;SDS011;37259;49.972;19.850;2023-01-06T00:54:31;5.5;;;2.9;;
51194;SDS011;37259;49.972;19.850;2023-01-06T00:55:31;5.5;;;2.9;;
51194;SDS011;37259;49.972;19.850;2023-01-06T00:56:34;5.5;;;2.9;;
51194;SDS011;37259;49.972;19.850;2023-01-06T00:57:31;5.5;;;2.9;;
51194;SDS011;37259;49.972;19.850;2023-01-06T00:58:32;5.5;;;2.9;;
51194;SDS011;37259;49.972;19.850;2023-01-06T00:59:31;5.5;;;2.9;;
51194;SDS011;37259;49.972;19.850;2023-01-06T01:00:31;5.5;;;2.9;;
51194;SDS011;37259;49.972;19.850;2023-01-06T01:01:32;5.5;;;2.9;;
51194;SDS011;37259;49.972;19.850;2023-01-06T01:02:32;5.5;;;2.9;;
51194;SDS011;37259;49.972;19.850;2023-01-06T01:03:32;5.5;;;2.9;;
51194;SDS011;37259;49.972;19.850;2023-01-06T01:04:31;5.5;;;2.9;;
51194;SDS011;37259;49.972;19.850;2023-01-06T01:05:31;5.5;;;2.9;;
51194;SDS011;37259;49.972;19.850;2023-01-06T01:06:31;5.5;;;2.9;;
51194;SDS011;37259;49.972;19.850;2023-01-06T01:07:31;5.5;;;2.9;;
51194;SDS011;37259;49.972;19.850;2023-01-06T01:08:32;5.5;;;2.9;;
51194;SDS011;37259;49.972;19.850;2023-01-06T01:09:31;5.5;;;2.9;;
51194;SDS011;37259;49.972;19.850;2023-01-06T01:10:31;4.9;;;2.5;;
51194;SDS011;37259;49.972;19.850;2023-01-06T01:11:32;4.9;;;2.5;;
51194;SDS011;37259;49.972;19.850;2023-01-06T01:12:31;4.9;;;2.5;;
51194;SDS011;37259;49.972;19.850;2023-01-06T01:13:31;4.9;;;2.5;;
51194;SDS011;37259;49.972;19.850;2023-01-06T01:14:31;4.9;;;2.5;;
51194;SDS011;37259;49.972;19.850;2023-01-06T01:15:31;4.9;;;2.5;;
51194;SDS011;37259;49.972;19.850;2023-01-06T01:16:32;4.9;;;2.5;;
51194;SDS011;37259;49.972;19.850;2023-01-06T01:17:31;4.9;;;2.5;;
51194;SDS011;37259;49.972;19.850;2023-01-06T01:18:32;4.9;;;2.5;;
51194;SDS011;37259;49.972;19.850;2023-01-06T01:19:31;4.9;;;2.5;;
51194;SDS011;37259;49.972;19.850;2023-01-06T01:21:31;4.9;;;2.5;;
51194;SDS011;37259;49.972;19.850;2023-01-06T01:22:31;4.9;;;2.5;;
51194;SDS011;37259;49.972;19.850;2023-01-06T01:23:31;4.9;;;2.5;;
51194;SDS011;37259;49.972;19.850;2023-01-06T01:24:31;4.9;;;2.5;;
51194;SDS011;37259;49.972;19.850;2023-01-06T01:25:32;4.9;;;2.5;;
51194;SDS011;37259;49.972;19.850;2023-01-06T01:26:31;4.9;;;2.5;;
51194;SDS011;37259;49.972;19.850;2023-01-06T01:27:31;4.9;;;2.5;;
51194;SDS011;37259;49.972;19.850;2023-01-06T01:28:31;4.9;;;2.5;;
51194;SDS011;37259;49.972;19.850;2023-01-06T01:29:32;4.9;;;2.5;;
51194;SDS011;37259;49.972;19.850;2023-01-06T01:30:31;4.9;;;2.5;;
51194;SDS011;37259;49.972;19.850;2023-01-06T01:31:32;4.9;;;2.5;;
51194;SDS011;37259;49.972;19.850;2023-01-06T01:32:31;4.9;;;2.5;;
51194;SDS011;37259;49.972;19.850;2023-01-06T01:33:31;4.9;;;2.5;;
51194;SDS011;37259;49.972;19.850;2023-01-06T01:34:32;4.9;;;2.5;;
51194;SDS011;37259;49.972;19.850;2023-01-06T01:35:31;4.9;;;2.5;;
51194;SDS011;37259;49.972;19.850;2023-01-06T01:36:31;4.9;;;2.5;;
51194;SDS011;37259;49.972;19.850;2023-01-06T01:37:31;4.9;;;2.5;;
51194;SDS011;37259;49.972;19.850;2023-01-06T01:38:31;4.9;;;2.5;;
51194;SDS011;37259;49.972;19.850;2023-01-06T01:39:31;4.9;;;2.5;;
51194;SDS011;37259;49.972;19.850;2023-01-06T01:40:32;3.8;;;2.2;;
51194;SDS011;37259;49.972;19.850;2023-01-06T01:41:31;3.8;;;2.2;;
51194;SDS011;37259;49.972;19.850;2023-01-06T01:42:32;3.8;;;2.2;;
51194;SDS011;37259;49.972;19.850;2023-01-06T01:43:49;3.8;;;2.2;;
51194;SDS011;37259;49.972;19.850;2023-01-06T01:45:04;3.8;;;2.2;;
51194;SDS011;37259;49.972;19.850;2023-01-06T01:45:31;3.8;;;2.2;;
51194;SDS011;37259;49.972;19.850;2023-01-06T01:46:32;3.8;;;2.2;;
51194;SDS011;37259;49.972;19.850;2023-01-06T01:47:34;3.8;;;2.2;;
51194;SDS011;37259;49.972;19.850;2023-01-06T01:48:32;3.8;;;2.2;;
51194;SDS011;37259;49.972;19.850;2023-01-06T01:49:31;3.8;;;2.2;;
51194;SDS011;37259;49.972;19.850;2023-01-06T01:50:32;3.8;;;2.2;;
51194;SDS011;37259;49.972;19.850;2023-01-06T01:51:32;3.8;;;2.2;;
51194;SDS011;37259;49.972;19.850;2023-01-06T01:52:32;3.8;;;2.2;;
51194;SDS011;37259;49.972;19.850;2023-01-06T01:53:33;3.8;;;2.2;;
51194;SDS011;37259;49.972;19.850;2023-01-06T01:54:31;3.8;;;2.2;;
51194;SDS011;37259;49.972;19.850;2023-01-06T01:55:32;3.8;;;2.2;;
51194;SDS011;37259;49.972;19.850;2023-01-06T01:56:32;3.8;;;2.2;;
51194;SDS011;37259;49.972;19.850;2023-01-06T01:57:32;3.8;;;2.2;;
51194;SDS011;37259;49.972;19.850;2023-01-06T01:58:33;3.8;;;2.2;;
51194;SDS011;37259;49.972;19.850;2023-01-06T01:59:32;3.8;;;2.2;;
51194;SDS011;37259;49.972;19.850;2023-01-06T02:00:32;3.8;;;2.2;;
51194;SDS011;37259;49.972;19.850;2023-01-06T02:01:31;3.8;;;2.2;;
51194;SDS011;37259;49.972;19.850;2023-01-06T02:02:31;3.8;;;2.2;;
51194;SDS011;37259;49.972;19.850;2023-01-06T02:03:31;3.8;;;2.2;;
51194;SDS011;37259;49.972;19.850;2023-01-06T02:04:32;3.8;;;2.2;;
51194;SDS011;37259;49.972;19.850;2023-01-06T02:05:32;3.8;;;2.2;;
51194;SDS011;37259;49.972;19.850;2023-01-06T02:06:31;3.8;;;2.2;;
51194;SDS011;37259;49.972;19.850;2023-01-06T02:07:31;3.8;;;2.2;;
51194;SDS011;37259;49.972;19.850;2023-01-06T02:08:32;3.8;;;2.2;;
51194;SDS011;37259;49.972;19.850;2023-01-06T02:09:33;6.5;;;2.9;;
51194;SDS011;37259;49.972;19.850;2023-01-06T02:10:31;6.5;;;2.9;;
51194;SDS011;37259;49.972;19.850;2023-01-06T02:11:32;6.5;;;2.9;;
51194;SDS011;37259;49.972;19.850;2023-01-06T02:12:31;6.5;;;2.9;;
51194;SDS011;37259;49.972;19.850;2023-01-06T02:13:32;6.5;;;2.9;;
51194;SDS011;37259;49.972;19.850;2023-01-06T02:14:31;6.5;;;2.9;;
51194;SDS011;37259;49.972;19.850;2023-01-06T02:15:32;6.5;;;2.9;;
51194;SDS011;37259;49.972;19.850;2023-01-06T02:16:34;6.5;;;2.9;;
51194;SDS011;37259;49.972;19.850;2023-01-06T02:17:37;6.5;;;2.9;;
51194;SDS011;37259;49.972;19.850;2023-01-06T02:18:36;6.5;;;2.9;;
51194;SDS011;37259;49.972;19.850;2023-01-06T02:19:39;6.5;;;2.9;;
51194;SDS011;37259;49.972;19.850;2023-01-06T02:20:35;6.5;;;2.9;;
51194;SDS011;37259;49.972;19.850;2023-01-06T02:21:35;6.5;;;2.9;;
51194;SDS011;37259;49.972;19.850;2023-01-06T02:22:37;6.5;;;2.9;;
51194;SDS011;37259;49.972;19.850;2023-01-06T02:23:34;6.5;;;2.9;;
51194;SDS011;37259;49.972;19.850;2023-01-06T02:24:37;6.5;;;2.9;;
51194;SDS011;37259;49.972;19.850;2023-01-06T02:25:37;6.5;;;2.9;;
51194;SDS011;37259;49.972;19.850;2023-01-06T02:27:07;6.5;;;2.9;;
51194;SDS011;37259;49.972;19.850;2023-01-06T02:27:40;6.5;;;2.9;;
51194;SDS011;37259;49.972;19.850;2023-01-06T02:28:39;6.5;;;2.9;;
51194;SDS011;37259;49.972;19.850;2023-01-06T02:29:37;6.5;;;2.9;;
51194;SDS011;37259;49.972;19.850;2023-01-06T02:30:34;6.5;;;2.9;;
51194;SDS011;37259;49.972;19.850;2023-01-06T02:31:38;6.5;;;2.9;;
51194;SDS011;37259;49.972;19.850;2023-01-06T02:32:35;6.5;;;2.9;;
51194;SDS011;37259;49.972;19.850;2023-01-06T02:33:32;6.5;;;2.9;;
51194;SDS011;37259;49.972;19.850;2023-01-06T02:34:36;6.5;;;2.9;;
51194;SDS011;37259;49.972;19.850;2023-01-06T02:35:37;6.5;;;2.9;;
51194;SDS011;37259;49.972;19.850;2023-01-06T02:36:33;6.5;;;2.9;;
51194;SDS011;37259;49.972;19.850;2023-01-06T02:37:36;6.5;;;2.9;;
51194;SDS011;37259;49.972;19.850;2023-01-06T02:38:38;6.5;;;2.9;;
51194;SDS011;37259;49.972;19.850;2023-01-06T02:39:33;5.4;;;2;;
51194;SDS011;37259;49.972;19.850;2023-01-06T02:40:35;5.4;;;2;;
51194;SDS011;37259;49.972;19.850;2023-01-06T02:41:32;5.4;;;2;;
51194;SDS011;37259;49.972;19.850;2023-01-06T02:42:33;5.4;;;2;;
51194;SDS011;37259;49.972;19.850;2023-01-06T02:43:34;5.4;;;2;;
51194;SDS011;37259;49.972;19.850;2023-01-06T02:44:32;5.4;;;2;;
51194;SDS011;37259;49.972;19.850;2023-01-06T02:45:33;5.4;;;2;;
51194;SDS011;37259;49.972;19.850;2023-01-06T02:46:38;5.4;;;2;;
51194;SDS011;37259;49.972;19.850;2023-01-06T02:47:32;5.4;;;2;;
51194;SDS011;37259;49.972;19.850;2023-01-06T02:48:33;5.4;;;2;;
51194;SDS011;37259;49.972;19.850;2023-01-06T02:49:33;5.4;;;2;;
51194;SDS011;37259;49.972;19.850;2023-01-06T02:50:35;5.4;;;2;;
51194;SDS011;37259;49.972;19.850;2023-01-06T02:51:33;5.4;;;2;;
51194;SDS011;37259;49.972;19.850;2023-01-06T02:52:33;5.4;;;2;;
51194;SDS011;37259;49.972;19.850;2023-01-06T02:53:33;5.4;;;2;;
51194;SDS011;37259;49.972;19.850;2023-01-06T02:54:33;5.4;;;2;;
51194;SDS011;37259;49.972;19.850;2023-01-06T02:55:32;5.4;;;2;;
51194;SDS011;37259;49.972;19.850;2023-01-06T02:56:33;5.4;;;2;;
51194;SDS011;37259;49.972;19.850;2023-01-06T02:57:34;5.4;;;2;;
51194;SDS011;37259;49.972;19.850;2023-01-06T02:58:32;5.4;;;2;;
51194;SDS011;37259;49.972;19.850;2023-01-06T02:59:33;5.4;;;2;;
51194;SDS011;37259;49.972;19.850;2023-01-06T03:00:32;5.4;;;2;;
51194;SDS011;37259;49.972;19.850;2023-01-06T03:01:32;5.4;;;2;;
51194;SDS011;37259;49.972;19.850;2023-01-06T03:02:32;5.4;;;2;;
51194;SDS011;37259;49.972;19.850;2023-01-06T03:03:32;5.4;;;2;;
51194;SDS011;37259;49.972;19.850;2023-01-06T03:04:32;5.4;;;2;;
51194;SDS011;37259;49.972;19.850;2023-01-06T03:05:32;5.4;;;2;;
51194;SDS011;37259;49.972;19.850;2023-01-06T03:06:31;5.4;;;2;;
51194;SDS011;37259;49.972;19.850;2023-01-06T03:07:31;5.4;;;2;;
51194;SDS011;37259;49.972;19.850;2023-01-06T03:08:32;5.4;;;2;;
51194;SDS011;37259;49.972;19.850;2023-01-06T03:09:32;5;;;2.1;;
51194;SDS011;37259;49.972;19.850;2023-01-06T03:10:31;5;;;2.1;;
51194;SDS011;37259;49.972;19.850;2023-01-06T03:11:31;5;;;2.1;;
51194;SDS011;37259;49.972;19.850;2023-01-06T03:12:34;5;;;2.1;;
51194;SDS011;37259;49.972;19.850;2023-01-06T03:13:32;5;;;2.1;;
51194;SDS011;37259;49.972;19.850;2023-01-06T03:14:32;5;;;2.1;;
51194;SDS011;37259;49.972;19.850;2023-01-06T03:15:32;5;;;2.1;;
51194;SDS011;37259;49.972;19.850;2023-01-06T03:16:32;5;;;2.1;;
51194;SDS011;37259;49.972;19.850;2023-01-06T03:17:32;5;;;2.1;;
51194;SDS011;37259;49.972;19.850;2023-01-06T03:18:32;5;;;2.1;;
51194;SDS011;37259;49.972;19.850;2023-01-06T03:19:32;5;;;2.1;;
51194;SDS011;37259;49.972;19.850;2023-01-06T03:20:32;5;;;2.1;;
51194;SDS011;37259;49.972;19.850;2023-01-06T03:21:32;5;;;2.1;;
51194;SDS011;37259;49.972;19.850;2023-01-06T03:22:32;5;;;2.1;;
51194;SDS011;37259;49.972;19.850;2023-01-06T03:23:32;5;;;2.1;;
51194;SDS011;37259;49.972;19.850;2023-01-06T03:24:32;5;;;2.1;;
51194;SDS011;37259;49.972;19.850;2023-01-06T03:25:31;5;;;2.1;;
51194;SDS011;37259;49.972;19.850;2023-01-06T03:26:32;5;;;2.1;;
51194;SDS011;37259;49.972;19.850;2023-01-06T03:27:31;5;;;2.1;;
51194;SDS011;37259;49.972;19.850;2023-01-06T03:28:31;5;;;2.1;;
51194;SDS011;37259;49.972;19.850;2023-01-06T03:29:32;5;;;2.1;;
51194;SDS011;37259;49.972;19.850;2023-01-06T03:30:34;5;;;2.1;;
51194;SDS011;37259;49.972;19.850;2023-01-06T03:31:33;5;;;2.1;;
51194;SDS011;37259;49.972;19.850;2023-01-06T03:32:32;5;;;2.1;;
51194;SDS011;37259;49.972;19.850;2023-01-06T03:33:33;5;;;2.1;;
51194;SDS011;37259;49.972;19.850;2023-01-06T03:34:36;5;;;2.1;;
51194;SDS011;37259;49.972;19.850;2023-01-06T03:35:36;5;;;2.1;;
51194;SDS011;37259;49.972;19.850;2023-01-06T03:36:34;5;;;2.1;;
51194;SDS011;37259;49.972;19.850;2023-01-06T03:37:34;5;;;2.1;;
51194;SDS011;37259;49.972;19.850;2023-01-06T03:38:36;5;;;2.1;;
51194;SDS011;37259;49.972;19.850;2023-01-06T03:39:32;4.7;;;2.3;;
51194;SDS011;37259;49.972;19.850;2023-01-06T03:41:33;4.7;;;2.3;;
51194;SDS011;37259;49.972;19.850;2023-01-06T03:42:33;4.7;;;2.3;;
51194;SDS011;37259;49.972;19.850;2023-01-06T03:43:33;4.7;;;2.3;;
51194;SDS011;37259;49.972;19.850;2023-01-06T03:44:33;4.7;;;2.3;;
51194;SDS011;37259;49.972;19.850;2023-01-06T03:45:40;4.7;;;2.3;;
51194;SDS011;37259;49.972;19.850;2023-01-06T03:46:33;4.7;;;2.3;;
51194;SDS011;37259;49.972;19.850;2023-01-06T03:47:32;4.7;;;2.3;;
51194;SDS011;37259;49.972;19.850;2023-01-06T03:48:33;4.7;;;2.3;;
51194;SDS011;37259;49.972;19.850;2023-01-06T03:49:32;4.7;;;2.3;;
51194;SDS011;37259;49.972;19.850;2023-01-06T03:50:33;4.7;;;2.3;;
51194;SDS011;37259;49.972;19.850;2023-01-06T03:51:35;4.7;;;2.3;;
51194;SDS011;37259;49.972;19.850;2023-01-06T03:52:32;4.7;;;2.3;;
51194;SDS011;37259;49.972;19.850;2023-01-06T03:53:33;4.7;;;2.3;;
51194;SDS011;37259;49.972;19.850;2023-01-06T03:54:33;4.7;;;2.3;;
51194;SDS011;37259;49.972;19.850;2023-01-06T03:55:32;4.7;;;2.3;;
51194;SDS011;37259;49.972;19.850;2023-01-06T03:56:32;4.7;;;2.3;;
51194;SDS011;37259;49.972;19.850;2023-01-06T03:57:32;4.7;;;2.3;;
51194;SDS011;37259;49.972;19.850;2023-01-06T03:58:32;4.7;;;2.3;;
51194;SDS011;37259;49.972;19.850;2023-01-06T03:59:32;4.7;;;2.3;;
51194;SDS011;37259;49.972;19.850;2023-01-06T04:00:32;4.7;;;2.3;;
51194;SDS011;37259;49.972;19.850;2023-01-06T04:01:32;4.7;;;2.3;;
51194;SDS011;37259;49.972;19.850;2023-01-06T04:02:32;4.7;;;2.3;;
51194;SDS011;37259;49.972;19.850;2023-01-06T04:03:32;4.7;;;2.3;;
51194;SDS011;37259;49.972;19.850;2023-01-06T04:04:31;4.7;;;2.3;;
51194;SDS011;37259;49.972;19.850;2023-01-06T04:05:32;4.7;;;2.3;;
51194;SDS011;37259;49.972;19.850;2023-01-06T04:06:31;4.7;;;2.3;;
51194;SDS011;37259;49.972;19.850;2023-01-06T04:07:32;4.7;;;2.3;;
51194;SDS011;37259;49.972;19.850;2023-01-06T04:08:31;4.7;;;2.3;;
51194;SDS011;37259;49.972;19.850;2023-01-06T04:09:31;4;;;2.3;;
51194;SDS011;37259;49.972;19.850;2023-01-06T04:10:31;4;;;2.3;;
51194;SDS011;37259;49.972;19.850;2023-01-06T04:11:31;4;;;2.3;;
51194;SDS011;37259;49.972;19.850;2023-01-06T04:12:31;4;;;2.3;;
51194;SDS011;37259;49.972;19.850;2023-01-06T04:13:32;4;;;2.3;;
51194;SDS011;37259;49.972;19.850;2023-01-06T04:14:32;4;;;2.3;;
51194;SDS011;37259;49.972;19.850;2023-01-06T04:15:32;4;;;2.3;;
51194;SDS011;37259;49.972;19.850;2023-01-06T04:16:32;4;;;2.3;;
51194;SDS011;37259;49.972;19.850;2023-01-06T04:17:32;4;;;2.3;;
51194;SDS011;37259;49.972;19.850;2023-01-06T04:18:31;4;;;2.3;;
51194;SDS011;37259;49.972;19.850;2023-01-06T04:19:31;4;;;2.3;;
51194;SDS011;37259;49.972;19.850;2023-01-06T04:20:32;4;;;2.3;;
51194;SDS011;37259;49.972;19.850;2023-01-06T04:21:32;4;;;2.3;;
51194;SDS011;37259;49.972;19.850;2023-01-06T04:22:32;4;;;2.3;;
51194;SDS011;37259;49.972;19.850;2023-01-06T04:23:32;4;;;2.3;;
51194;SDS011;37259;49.972;19.850;2023-01-06T04:24:31;4;;;2.3;;
51194;SDS011;37259;49.972;19.850;2023-01-06T04:25:32;4;;;2.3;;
51194;SDS011;37259;49.972;19.850;2023-01-06T04:26:32;4;;;2.3;;
51194;SDS011;37259;49.972;19.850;2023-01-06T04:27:31;4;;;2.3;;
51194;SDS011;37259;49.972;19.850;2023-01-06T04:28:31;4;;;2.3;;
51194;SDS011;37259;49.972;19.850;2023-01-06T04:29:32;4;;;2.3;;
51194;SDS011;37259;49.972;19.850;2023-01-06T04:30:32;4;;;2.3;;
51194;SDS011;37259;49.972;19.850;2023-01-06T04:31:32;4;;;2.3;;
51194;SDS011;37259;49.972;19.850;2023-01-06T04:32:32;4;;;2.3;;
51194;SDS011;37259;49.972;19.850;2023-01-06T04:33:32;4;;;2.3;;
51194;SDS011;37259;49.972;19.850;2023-01-06T04:34:32;4;;;2.3;;
51194;SDS011;37259;49.972;19.850;2023-01-06T04:35:31;4;;;2.3;;
51194;SDS011;37259;49.972;19.850;2023-01-06T04:36:32;4;;;2.3;;
51194;SDS011;37259;49.972;19.850;2023-01-06T04:37:32;4;;;2.3;;
51194;SDS011;37259;49.972;19.850;2023-01-06T04:38:32;4;;;2.3;;
51194;SDS011;37259;49.972;19.850;2023-01-06T04:39:31;4.9;;;2.5;;
51194;SDS011;37259;49.972;19.850;2023-01-06T04:40:31;4.9;;;2.5;;
51194;SDS011;37259;49.972;19.850;2023-01-06T04:41:32;4.9;;;2.5;;
51194;SDS011;37259;49.972;19.850;2023-01-06T04:42:32;4.9;;;2.5;;
51194;SDS011;37259;49.972;19.850;2023-01-06T04:43:32;4.9;;;2.5;;
51194;SDS011;37259;49.972;19.850;2023-01-06T04:44:31;4.9;;;2.5;;
51194;SDS011;37259;49.972;19.850;2023-01-06T04:45:32;4.9;;;2.5;;
51194;SDS011;37259;49.972;19.850;2023-01-06T04:46:32;4.9;;;2.5;;
51194;SDS011;37259;49.972;19.850;2023-01-06T04:47:32;4.9;;;2.5;;
51194;SDS011;37259;49.972;19.850;2023-01-06T04:48:32;4.9;;;2.5;;
51194;SDS011;37259;49.972;19.850;2023-01-06T04:49:32;4.9;;;2.5;;
51194;SDS011;37259;49.972;19.850;2023-01-06T04:50:32;4.9;;;2.5;;
51194;SDS011;37259;49.972;19.850;2023-01-06T04:51:32;4.9;;;2.5;;
51194;SDS011;37259;49.972;19.850;2023-01-06T04:52:32;4.9;;;2.5;;
51194;SDS011;37259;49.972;19.850;2023-01-06T04:53:32;4.9;;;2.5;;
51194;SDS011;37259;49.972;19.850;2023-01-06T04:54:32;4.9;;;2.5;;
51194;SDS011;37259;49.972;19.850;2023-01-06T04:55:32;4.9;;;2.5;;
51194;SDS011;37259;49.972;19.850;2023-01-06T04:56:32;4.9;;;2.5;;
51194;SDS011;37259;49.972;19.850;2023-01-06T04:57:32;4.9;;;2.5;;
51194;SDS011;37259;49.972;19.850;2023-01-06T04:58:32;4.9;;;2.5;;
51194;SDS011;37259;49.972;19.850;2023-01-06T04:59:32;4.9;;;2.5;;
51194;SDS011;37259;49.972;19.850;2023-01-06T05:00:32;4.9;;;2.5;;
51194;SDS011;37259;49.972;19.850;2023-01-06T05:01:32;4.9;;;2.5;;
51194;SDS011;37259;49.972;19.850;2023-01-06T05:02:32;4.9;;;2.5;;
51194;SDS011;37259;49.972;19.850;2023-01-06T05:03:32;4.9;;;2.5;;
51194;SDS011;37259;49.972;19.850;2023-01-06T05:04:32;4.9;;;2.5;;
51194;SDS011;37259;49.972;19.850;2023-01-06T05:05:31;4.9;;;2.5;;
51194;SDS011;37259;49.972;19.850;2023-01-06T05:06:32;4.9;;;2.5;;
51194;SDS011;37259;49.972;19.850;2023-01-06T05:07:32;4.9;;;2.5;;
51194;SDS011;37259;49.972;19.850;2023-01-06T05:08:32;4.9;;;2.5;;
51194;SDS011;37259;49.972;19.850;2023-01-06T05:09:32;7.8;;;3;;
51194;SDS011;37259;49.972;19.850;2023-01-06T05:10:32;7.8;;;3;;
51194;SDS011;37259;49.972;19.850;2023-01-06T05:11:32;7.8;;;3;;
51194;SDS011;37259;49.972;19.850;2023-01-06T05:12:32;7.8;;;3;;
51194;SDS011;37259;49.972;19.850;2023-01-06T05:13:32;7.8;;;3;;
51194;SDS011;37259;49.972;19.850;2023-01-06T05:14:32;7.8;;;3;;
51194;SDS011;37259;49.972;19.850;2023-01-06T05:15:32;7.8;;;3;;
51194;SDS011;37259;49.972;19.850;2023-01-06T05:16:32;7.8;;;3;;
51194;SDS011;37259;49.972;19.850;2023-01-06T05:17:32;7.8;;;3;;
51194;SDS011;37259;49.972;19.850;2023-01-06T05:18:32;7.8;;;3;;
51194;SDS011;37259;49.972;19.850;2023-01-06T05:19:32;7.8;;;3;;
51194;SDS011;37259;49.972;19.850;2023-01-06T05:20:31;7.8;;;3;;
51194;SDS011;37259;49.972;19.850;2023-01-06T05:21:32;7.8;;;3;;
51194;SDS011;37259;49.972;19.850;2023-01-06T05:22:32;7.8;;;3;;
51194;SDS011;37259;49.972;19.850;2023-01-06T05:23:32;7.8;;;3;;
51194;SDS011;37259;49.972;19.850;2023-01-06T05:24:31;7.8;;;3;;
51194;SDS011;37259;49.972;19.850;2023-01-06T05:25:32;7.8;;;3;;
51194;SDS011;37259;49.972;19.850;2023-01-06T05:26:32;7.8;;;3;;
51194;SDS011;37259;49.972;19.850;2023-01-06T05:27:32;7.8;;;3;;
51194;SDS011;37259;49.972;19.850;2023-01-06T05:29:32;7.8;;;3;;
51194;SDS011;37259;49.972;19.850;2023-01-06T05:30:32;7.8;;;3;;
51194;SDS011;37259;49.972;19.850;2023-01-06T05:31:32;7.8;;;3;;
51194;SDS011;37259;49.972;19.850;2023-01-06T05:32:32;7.8;;;3;;
51194;SDS011;37259;49.972;19.850;2023-01-06T05:33:32;7.8;;;3;;
51194;SDS011;37259;49.972;19.850;2023-01-06T05:34:32;7.8;;;3;;
51194;SDS011;37259;49.972;19.850;2023-01-06T05:35:32;7.8;;;3;;
51194;SDS011;37259;49.972;19.850;2023-01-06T05:36:32;7.8;;;3;;
51194;SDS011;37259;49.972;19.850;2023-01-06T05:37:32;7.8;;;3;;
51194;SDS011;37259;49.972;19.850;2023-01-06T05:38:32;7.8;;;3;;
51194;SDS011;37259;49.972;19.850;2023-01-06T05:39:32;5.7;;;2.9;;
51194;SDS011;37259;49.972;19.850;2023-01-06T05:40:32;5.7;;;2.9;;
51194;SDS011;37259;49.972;19.850;2023-01-06T05:41:32;5.7;;;2.9;;
51194;SDS011;37259;49.972;19.850;2023-01-06T05:42:32;5.7;;;2.9;;
51194;SDS011;37259;49.972;19.850;2023-01-06T05:43:32;5.7;;;2.9;;
51194;SDS011;37259;49.972;19.850;2023-01-06T05:44:31;5.7;;;2.9;;
51194;SDS011;37259;49.972;19.850;2023-01-06T05:45:32;5.7;;;2.9;;
51194;SDS011;37259;49.972;19.850;2023-01-06T05:46:32;5.7;;;2.9;;
51194;SDS011;37259;49.972;19.850;2023-01-06T05:47:32;5.7;;;2.9;;
51194;SDS011;37259;49.972;19.850;2023-01-06T05:48:32;5.7;;;2.9;;
51194;SDS011;37259;49.972;19.850;2023-01-06T05:49:32;5.7;;;2.9;;
51194;SDS011;37259;49.972;19.850;2023-01-06T05:50:32;5.7;;;2.9;;
51194;SDS011;37259;49.972;19.850;2023-01-06T05:51:32;5.7;;;2.9;;
51194;SDS011;37259;49.972;19.850;2023-01-06T05:52:32;5.7;;;2.9;;
51194;SDS011;37259;49.972;19.850;2023-01-06T05:53:32;5.7;;;2.9;;
51194;SDS011;37259;49.972;19.850;2023-01-06T05:54:32;5.7;;;2.9;;
51194;SDS011;37259;49.972;19.850;2023-01-06T05:55:32;5.7;;;2.9;;
51194;SDS011;37259;49.972;19.850;2023-01-06T05:56:32;5.7;;;2.9;;
51194;SDS011;37259;49.972;19.850;2023-01-06T05:57:32;5.7;;;2.9;;
51194;SDS011;37259;49.972;19.850;2023-01-06T05:58:32;5.7;;;2.9;;
51194;SDS011;37259;49.972;19.850;2023-01-06T05:59:32;5.7;;;2.9;;
51194;SDS011;37259;49.972;19.850;2023-01-06T06:00:32;5.7;;;2.9;;
51194;SDS011;37259;49.972;19.850;2023-01-06T06:01:32;5.7;;;2.9;;
51194;SDS011;37259;49.972;19.850;2023-01-06T06:02:32;5.7;;;2.9;;
51194;SDS011;37259;49.972;19.850;2023-01-06T06:03:32;5.7;;;2.9;;
51194;SDS011;37259;49.972;19.850;2023-01-06T06:04:32;5.7;;;2.9;;
51194;SDS011;37259;49.972;19.850;2023-01-06T06:05:32;5.7;;;2.9;;
51194;SDS011;37259;49.972;19.850;2023-01-06T06:06:32;5.7;;;2.9;;
51194;SDS011;37259;49.972;19.850;2023-01-06T06:07:32;5.7;;;2.9;;
51194;SDS011;37259;49.972;19.850;2023-01-06T06:08:32;5.7;;;2.9;;
51194;SDS011;37259;49.972;19.850;2023-01-06T06:09:32;6.7;;;3.1;;
51194;SDS011;37259;49.972;19.850;2023-01-06T06:10:32;6.7;;;3.1;;
51194;SDS011;37259;49.972;19.850;2023-01-06T06:11:32;6.7;;;3.1;;
51194;SDS011;37259;49.972;19.850;2023-01-06T06:12:32;6.7;;;3.1;;
51194;SDS011;37259;49.972;19.850;2023-01-06T06:13:32;6.7;;;3.1;;
51194;SDS011;37259;49.972;19.850;2023-01-06T06:14:32;6.7;;;3.1;;